Time;durP1;ratioP1;P1;durP2;ratioP2;P2;SDS_P1;SDS_P2;PMS_P1;PMS_P2;Temp;Humidity;BMP_temperature;BMP_pressure;BME280_temperature;BME280_humidity;BME280_pressure;Samples;Min_cycle;Max_cycle;Signal;HPM_P1;HPM_P2
2021/12/06 00:00:58;;;;;;;4.85;1.58;;;6.20;99.90;;;;;;4950015;28;20566;-84
2021/12/06 00:03:39;;;;;;;4.50;1.92;;;5.80;99.90;;;;;;4935621;28;20449;-84
2021/12/06 00:06:06;;;;;;;2.13;1.05;;;5.80;99.90;;;;;;4934207;28;20846;-84
2021/12/06 00:08:34;;;;;;;2.13;1.48;;;5.80;99.90;;;;;;4949424;28;20188;-84
2021/12/06 00:11:06;;;;;;;4.10;1.48;;;5.80;99.90;;;;;;5022018;28;20048;-84
2021/12/06 00:13:35;;;;;;;4.82;1.85;;;5.90;99.90;;;;;;4936458;28;20036;-83
2021/12/06 00:16:02;;;;;;;2.65;1.20;;;5.90;99.90;;;;;;4938915;28;20043;-84
2021/12/06 00:18:27;;;;;;;3.08;1.05;;;5.90;99.90;;;;;;4939539;28;20328;-85
2021/12/06 00:20:54;;;;;;;3.42;1.45;;;5.90;99.90;;;;;;4957115;28;20420;-85
2021/12/06 00:23:19;;;;;;;2.25;1.40;;;5.90;99.90;;;;;;4932880;28;21765;-84
2021/12/06 00:25:45;;;;;;;3.35;1.45;;;5.90;99.90;;;;;;4940739;28;20171;-84
2021/12/06 00:28:11;;;;;;;2.88;1.65;;;6.20;99.90;;;;;;4952050;28;20433;-84
2021/12/06 00:30:37;;;;;;;2.83;1.60;;;5.70;99.90;;;;;;4979745;28;20394;-84
2021/12/06 00:33:03;;;;;;;5.47;1.90;;;5.70;99.90;;;;;;4955963;28;20410;-85
2021/12/06 00:35:29;;;;;;;2.92;1.50;;;5.70;99.90;;;;;;4952545;28;20055;-84
2021/12/06 00:38:00;;;;;;;3.58;1.20;;;5.80;99.90;;;;;;4957659;28;20040;-85
2021/12/06 00:40:47;;;;;;;2.05;0.88;;;5.70;99.90;;;;;;4959611;28;20048;-85
2021/12/06 00:43:14;;;;;;;2.38;0.95;;;5.60;99.90;;;;;;4939820;28;20202;-85
2021/12/06 00:45:40;;;;;;;4.95;0.90;;;5.60;99.90;;;;;;4940780;28;20043;-85
2021/12/06 00:48:06;;;;;;;1.27;1.17;;;5.60;99.90;;;;;;4958749;28;20520;-84
2021/12/06 00:50:36;;;;;;;2.70;1.60;;;5.60;99.90;;;;;;4941393;28;20043;-85
2021/12/06 00:53:03;;;;;;;2.45;1.20;;;5.60;99.90;;;;;;4963712;28;20045;-85
2021/12/06 00:55:29;;;;;;;1.00;0.90;;;5.60;99.90;;;;;;4956093;28;20047;-85
2021/12/06 00:57:56;;;;;;;2.05;0.95;;;5.60;99.90;;;;;;4957834;28;20134;-85
2021/12/06 01:00:26;;;;;;;1.23;1.10;;;5.60;99.90;;;;;;4960267;28;20061;-85
2021/12/06 01:02:54;;;;;;;4.55;1.35;;;5.60;99.90;;;;;;4948921;28;20044;-85
2021/12/06 01:05:23;;;;;;;3.13;1.13;;;5.80;99.90;;;;;;4943627;28;20202;-85
2021/12/06 01:07:50;;;;;;;1.65;1.15;;;5.70;99.90;;;;;;4938699;28;20040;-85
2021/12/06 01:10:16;;;;;;;1.08;0.85;;;5.60;99.90;;;;;;4944036;28;20047;-85
2021/12/06 01:12:43;;;;;;;7.00;1.17;;;5.50;99.90;;;;;;4940794;28;20044;-85
2021/12/06 01:15:09;;;;;;;3.03;0.88;;;5.50;99.90;;;;;;4977057;28;20100;-85
2021/12/06 01:17:35;;;;;;;2.53;1.00;;;5.50;99.90;;;;;;4932741;28;20086;-85
2021/12/06 01:20:06;;;;;;;5.68;2.00;;;5.50;99.90;;;;;;4952155;28;20044;-85
2021/12/06 01:22:43;;;;;;;1.52;1.13;;;5.40;99.90;;;;;;4949629;28;20577;-84
2021/12/06 01:25:22;;;;;;;3.15;1.27;;;5.40;99.90;;;;;;4951416;28;20047;-85
2021/12/06 01:30:51;;;;;;;0.85;0.80;;;5.50;99.90;;;;;;4939841;28;20043;-85
2021/12/06 01:41:28;;;;;;;5.45;1.98;;;5.40;99.90;;;;;;4936353;28;21576;-85
2021/12/06 01:44:08;;;;;;;2.78;1.08;;;5.50;99.90;;;;;;4941723;28;20044;-85
2021/12/06 01:46:37;;;;;;;1.75;1.33;;;5.60;99.90;;;;;;4953241;28;21035;-85
2021/12/06 01:49:04;;;;;;;2.72;1.23;;;5.70;99.90;;;;;;4939596;28;20741;-85
2021/12/06 01:51:31;;;;;;;2.47;1.67;;;5.80;99.90;;;;;;4951388;28;20567;-85
2021/12/06 01:53:57;;;;;;;5.97;0.93;;;5.80;99.90;;;;;;4937352;28;20135;-84
2021/12/06 01:56:23;;;;;;;1.60;0.90;;;6.10;99.90;;;;;;4956967;28;20039;-85
2021/12/06 01:58:49;;;;;;;3.63;1.27;;;5.80;99.90;;;;;;4961619;28;20742;-84
2021/12/06 02:01:15;;;;;;;1.65;1.00;;;5.80;99.90;;;;;;4964063;28;20051;-85
2021/12/06 02:03:40;;;;;;;2.60;1.20;;;5.80;99.90;;;;;;4937645;28;20040;-84
2021/12/06 02:06:06;;;;;;;2.88;1.27;;;5.80;99.90;;;;;;4936416;28;20055;-84
2021/12/06 02:08:32;;;;;;;1.17;0.85;;;5.80;99.90;;;;;;4956897;28;20059;-85
2021/12/06 02:11:01;;;;;;;2.35;1.13;;;5.70;99.90;;;;;;4973484;28;20513;-85
2021/12/06 02:13:32;;;;;;;1.15;0.77;;;5.70;99.90;;;;;;4956276;28;20130;-84
2021/12/06 02:15:58;;;;;;;2.58;0.60;;;5.60;99.90;;;;;;4954818;28;20048;-84
2021/12/06 02:18:47;;;;;;;0.30;0.30;;;5.60;99.90;;;;;;4943414;28;20048;-83
2021/12/06 02:21:28;;;;;;;1.73;1.25;;;5.60;99.90;;;;;;4945466;28;20131;-85
2021/12/06 02:23:54;;;;;;;4.15;0.73;;;5.50;99.90;;;;;;4953349;28;20043;-84
2021/12/06 02:26:21;;;;;;;4.47;1.40;;;5.50;99.90;;;;;;4938755;28;20507;-84
2021/12/06 02:28:47;;;;;;;0.93;0.75;;;5.50;99.90;;;;;;4939751;28;20052;-85
2021/12/06 02:31:13;;;;;;;2.30;1.05;;;5.50;99.90;;;;;;4948988;28;20094;-86
2021/12/06 02:33:39;;;;;;;1.58;1.05;;;5.40;99.90;;;;;;4951365;28;20039;-85
2021/12/06 02:36:06;;;;;;;1.30;0.95;;;5.50;99.90;;;;;;4939527;28;20078;-85
2021/12/06 02:38:32;;;;;;;5.68;1.33;;;5.50;99.90;;;;;;4951490;28;20044;-85
2021/12/06 02:40:58;;;;;;;1.73;0.85;;;5.60;99.90;;;;;;4959607;28;20036;-84
2021/12/06 02:43:24;;;;;;;1.30;1.15;;;5.70;99.90;;;;;;4947808;28;20898;-85
2021/12/06 02:45:51;;;;;;;3.00;0.90;;;5.80;99.90;;;;;;4952009;28;20046;-84
2021/12/06 02:48:17;;;;;;;4.15;1.08;;;5.80;99.90;;;;;;4940602;28;20511;-85
2021/12/06 02:50:50;;;;;;;1.65;1.00;;;5.80;99.90;;;;;;4955546;28;20036;-85
2021/12/06 02:53:19;;;;;;;4.45;1.33;;;5.80;99.90;;;;;;4943824;28;20096;-84
2021/12/06 02:55:51;;;;;;;1.30;0.75;;;5.90;99.90;;;;;;4939516;28;20044;-84
2021/12/06 02:58:55;;;;;;;1.02;0.88;;;5.90;99.90;;;;;;4939125;28;20083;-85
2021/12/06 03:01:26;;;;;;;1.00;0.80;;;5.90;99.90;;;;;;4937367;28;20425;-85
2021/12/06 03:03:52;;;;;;;5.85;1.30;;;5.90;99.90;;;;;;4954491;28;20055;-85
2021/12/06 03:06:17;;;;;;;6.07;1.17;;;5.90;99.90;;;;;;4960306;28;20048;-85
2021/12/06 03:09:06;;;;;;;3.15;1.00;;;5.90;99.90;;;;;;4944976;28;20085;-85
2021/12/06 03:11:46;;;;;;;12.20;1.60;;;5.90;99.90;;;;;;4954964;28;20043;-85
2021/12/06 03:14:19;;;;;;;1.38;1.00;;;6.00;99.90;;;;;;4946161;28;20051;-85
2021/12/06 03:16:44;;;;;;;;;;;5.90;99.90;;;;;;4947372;28;20417;-85
2021/12/06 03:19:10;;;;;;;0.70;0.52;;;6.00;99.90;;;;;;4941216;28;20021;-85
2021/12/06 03:21:37;;;;;;;2.20;1.20;;;6.00;99.90;;;;;;4957703;28;20047;-84
2021/12/06 03:24:04;;;;;;;1.17;1.00;;;6.00;99.90;;;;;;4953564;28;20203;-83
2021/12/06 03:26:31;;;;;;;3.05;1.10;;;6.00;99.90;;;;;;4957682;28;20036;-84
2021/12/06 03:29:00;;;;;;;8.20;1.45;;;6.00;99.90;;;;;;4954937;28;20055;-84
2021/12/06 03:31:26;;;;;;;4.85;1.20;;;6.00;99.90;;;;;;4939934;28;20444;-83
2021/12/06 03:33:54;;;;;;;3.33;1.20;;;6.10;99.90;;;;;;4958464;28;20048;-85
2021/12/06 03:36:22;;;;;;;3.28;1.38;;;6.10;99.90;;;;;;4942831;28;20039;-85
2021/12/06 03:38:52;;;;;;;0.95;0.68;;;6.10;99.90;;;;;;4957157;28;20117;-85
2021/12/06 03:41:19;;;;;;;4.55;1.02;;;6.10;99.90;;;;;;4951884;28;20056;-85
2021/12/06 03:43:45;;;;;;;2.30;0.95;;;6.20;99.90;;;;;;4943055;28;20279;-85
2021/12/06 03:46:13;;;;;;;4.35;1.40;;;6.20;99.90;;;;;;4940311;28;20071;-85
2021/12/06 03:48:39;;;;;;;1.60;0.98;;;6.20;99.90;;;;;;4945922;28;20523;-85
2021/12/06 03:51:05;;;;;;;2.67;1.33;;;6.20;99.90;;;;;;4942922;28;20146;-85
2021/12/06 03:53:31;;;;;;;3.17;0.82;;;6.20;99.90;;;;;;4951646;28;20170;-85
2021/12/06 03:55:58;;;;;;;2.42;1.00;;;6.20;99.90;;;;;;4960969;28;20047;-85
2021/12/06 03:58:24;;;;;;;0.95;0.80;;;6.20;99.90;;;;;;4951522;28;20048;-84
2021/12/06 04:00:50;;;;;;;2.05;1.88;;;6.20;99.90;;;;;;4957345;28;20917;-85
2021/12/06 04:03:18;;;;;;;1.23;1.02;;;6.20;99.90;;;;;;4936468;28;20051;-85
2021/12/06 04:05:44;;;;;;;1.83;1.05;;;6.20;99.90;;;;;;4949908;28;20043;-85
2021/12/06 04:08:09;;;;;;;2.55;1.13;;;6.20;99.90;;;;;;4959177;28;20052;-85
2021/12/06 04:10:35;;;;;;;3.72;0.80;;;6.20;99.90;;;;;;4966163;28;20047;-85
2021/12/06 04:13:03;;;;;;;1.67;1.52;;;6.20;99.90;;;;;;4940762;28;20071;-85
2021/12/06 04:15:29;;;;;;;2.22;1.02;;;6.10;99.90;;;;;;4944016;28;20051;-85
2021/12/06 04:17:59;;;;;;;2.00;1.02;;;6.10;99.90;;;;;;4959488;28;20903;-85
2021/12/06 04:20:25;;;;;;;1.77;0.98;;;6.10;99.90;;;;;;4961533;28;20052;-85
2021/12/06 04:22:52;;;;;;;3.53;1.00;;;6.20;99.90;;;;;;4964700;28;21019;-85
2021/12/06 04:25:19;;;;;;;1.20;0.55;;;6.10;99.90;;;;;;4941985;28;20126;-84
2021/12/06 04:27:52;;;;;;;1.98;1.02;;;6.00;99.90;;;;;;4958124;28;20441;-85
2021/12/06 04:30:18;;;;;;;1.58;0.93;;;6.00;99.90;;;;;;4961610;28;20058;-85
2021/12/06 04:32:44;;;;;;;1.77;1.27;;;6.00;99.90;;;;;;4955735;28;20560;-85
2021/12/06 04:35:10;;;;;;;3.95;1.45;;;6.00;99.90;;;;;;4952523;28;20048;-85
2021/12/06 04:37:36;;;;;;;0.98;0.85;;;6.40;99.90;;;;;;4956005;28;20135;-86
2021/12/06 04:40:04;;;;;;;1.83;0.90;;;6.00;99.90;;;;;;4935913;28;20045;-84
2021/12/06 04:42:29;;;;;;;2.72;0.82;;;6.00;99.90;;;;;;4958188;28;20122;-85
2021/12/06 04:44:55;;;;;;;2.50;1.35;;;6.10;99.90;;;;;;4942048;28;20724;-84
2021/12/06 04:47:21;;;;;;;5.32;1.10;;;6.10;99.90;;;;;;4954326;28;20147;-84
2021/12/06 04:49:46;;;;;;;3.22;1.15;;;6.10;99.90;;;;;;4957039;28;20040;-85
2021/12/06 04:52:14;;;;;;;6.63;1.15;;;6.10;99.90;;;;;;4935009;28;20058;-85
2021/12/06 04:54:44;;;;;;;2.95;1.00;;;6.20;99.90;;;;;;4938856;28;20067;-85
2021/12/06 04:57:17;;;;;;;1.17;0.75;;;6.20;99.90;;;;;;4938274;28;20056;-85
2021/12/06 04:59:48;;;;;;;2.95;1.17;;;6.30;99.90;;;;;;4933147;28;20039;-85
2021/12/06 05:02:32;;;;;;;7.03;1.50;;;6.30;99.90;;;;;;4953876;28;20101;-85
2021/12/06 05:05:04;;;;;;;0.93;0.77;;;6.30;99.90;;;;;;4952952;28;20072;-84
2021/12/06 05:07:32;;;;;;;;;;;6.20;99.90;;;;;;4934965;28;20139;-84
2021/12/06 05:09:58;;;;;;;0.70;0.70;;;6.30;99.90;;;;;;4933775;28;19923;-84
2021/12/06 05:12:27;;;;;;;2.03;1.33;;;6.30;99.90;;;;;;4937897;28;20123;-84
2021/12/06 05:14:53;;;;;;;1.42;0.95;;;6.10;99.90;;;;;;4933020;28;20036;-84
2021/12/06 05:17:19;;;;;;;1.65;1.05;;;6.30;99.90;;;;;;4938471;28;20052;-84
2021/12/06 05:19:46;;;;;;;2.60;1.15;;;6.20;99.90;;;;;;4939566;28;20516;-84
2021/12/06 05:22:11;;;;;;;1.05;0.95;;;6.20;99.90;;;;;;4950490;28;20134;-84
2021/12/06 05:24:37;;;;;;;1.95;0.90;;;6.20;99.90;;;;;;4954497;28;20167;-83
2021/12/06 05:27:05;;;;;;;1.35;1.02;;;6.20;99.90;;;;;;4932418;28;20135;-85
2021/12/06 05:29:32;;;;;;;0.82;0.75;;;6.20;99.90;;;;;;4959294;28;20043;-84
2021/12/06 05:31:59;;;;;;;3.33;1.05;;;6.20;99.90;;;;;;4955220;28;20044;-85
2021/12/06 05:34:35;;;;;;;1.60;0.90;;;6.20;99.90;;;;;;4949924;28;20039;-84
2021/12/06 05:37:02;;;;;;;1.65;0.90;;;6.20;99.90;;;;;;4942686;28;20056;-85
2021/12/06 05:39:32;;;;;;;5.53;1.30;;;6.20;99.90;;;;;;4933058;28;20044;-85
2021/12/06 05:42:01;;;;;;;1.52;0.82;;;6.00;99.90;;;;;;4946033;28;20032;-84
2021/12/06 05:44:27;;;;;;;2.42;1.40;;;6.20;99.90;;;;;;4959250;28;20047;-85
2021/12/06 05:46:54;;;;;;;3.20;0.85;;;6.10;99.90;;;;;;4953535;28;20055;-84
2021/12/06 05:49:21;;;;;;;3.72;1.38;;;6.10;99.90;;;;;;4953083;28;20051;-84
2021/12/06 05:51:46;;;;;;;1.73;1.40;;;6.00;99.90;;;;;;4954589;28;20517;-84
2021/12/06 05:54:12;;;;;;;6.93;1.33;;;6.10;99.90;;;;;;4950329;28;20060;-83
2021/12/06 05:56:38;;;;;;;6.72;1.52;;;6.60;99.90;;;;;;4935394;28;20051;-85
2021/12/06 05:59:03;;;;;;;2.70;1.02;;;6.20;99.90;;;;;;4954825;28;21069;-85
2021/12/06 06:01:30;;;;;;;5.70;1.30;;;6.20;99.90;;;;;;4941917;28;20080;-84
2021/12/06 06:04:01;;;;;;;3.88;1.15;;;6.20;99.90;;;;;;4950946;28;20980;-85
2021/12/06 06:06:30;;;;;;;0.98;0.80;;;6.20;99.90;;;;;;4951316;28;20320;-85
2021/12/06 06:08:56;;;;;;;1.98;1.10;;;6.30;99.90;;;;;;4931594;28;20521;-85
2021/12/06 06:11:22;;;;;;;4.07;1.38;;;6.30;99.90;;;;;;4954715;28;21869;-85
2021/12/06 06:13:48;;;;;;;1.90;1.08;;;6.30;99.90;;;;;;4953148;28;20580;-85
2021/12/06 06:16:18;;;;;;;3.90;1.20;;;6.30;99.90;;;;;;4943547;28;20136;-85
2021/12/06 06:18:44;;;;;;;2.58;1.45;;;6.30;99.90;;;;;;4954333;28;20127;-84
2021/12/06 06:21:10;;;;;;;1.58;1.00;;;6.30;99.90;;;;;;4938836;28;20043;-85
2021/12/06 06:23:36;;;;;;;3.92;1.40;;;6.30;99.90;;;;;;4950034;28;20079;-84
2021/12/06 06:26:02;;;;;;;4.57;1.33;;;6.30;99.90;;;;;;4954049;28;20202;-85
2021/12/06 06:28:27;;;;;;;1.73;1.17;;;6.30;99.90;;;;;;4939056;28;20051;-84
2021/12/06 06:30:53;;;;;;;2.95;1.60;;;6.30;99.90;;;;;;4937835;28;20044;-84
2021/12/06 06:33:21;;;;;;;1.27;0.85;;;6.40;99.90;;;;;;4951518;28;20050;-85
2021/12/06 06:35:47;;;;;;;5.07;1.67;;;6.30;99.90;;;;;;4954104;28;20079;-84
2021/12/06 06:38:13;;;;;;;3.35;1.20;;;6.20;99.90;;;;;;4940774;28;20516;-84
2021/12/06 06:40:39;;;;;;;3.97;1.67;;;6.20;99.90;;;;;;4935617;28;20462;-85
2021/12/06 06:43:05;;;;;;;2.15;1.20;;;6.30;99.90;;;;;;4934358;28;20926;-83
2021/12/06 06:45:32;;;;;;;2.47;1.10;;;6.30;99.90;;;;;;4939951;28;20051;-82
2021/12/06 06:47:58;;;;;;;6.53;1.52;;;6.30;99.90;;;;;;4933420;28;20052;-83
2021/12/06 06:50:24;;;;;;;3.75;1.90;;;6.30;99.90;;;;;;4941136;28;20043;-84
2021/12/06 06:52:51;;;;;;;3.95;1.45;;;6.30;99.90;;;;;;4952006;28;20051;-83
2021/12/06 06:55:18;;;;;;;1.75;1.33;;;6.30;99.90;;;;;;4936500;28;20602;-81
2021/12/06 06:57:45;;;;;;;2.40;1.15;;;6.30;99.90;;;;;;4933308;28;20082;-84
2021/12/06 07:00:20;;;;;;;4.50;1.23;;;6.40;99.90;;;;;;4938881;28;20904;-84
2021/12/06 07:02:46;;;;;;;2.50;1.42;;;6.40;99.90;;;;;;4946939;28;20079;-83
2021/12/06 07:05:12;;;;;;;5.10;1.52;;;6.30;99.90;;;;;;4940206;28;20054;-85
2021/12/06 07:07:38;;;;;;;2.85;1.20;;;6.40;99.90;;;;;;4943166;28;20094;-84
2021/12/06 07:10:06;;;;;;;2.47;1.27;;;6.50;99.90;;;;;;4957001;28;20044;-85
2021/12/06 07:12:34;;;;;;;1.83;1.02;;;6.30;99.90;;;;;;4959902;28;20075;-85
2021/12/06 07:15:00;;;;;;;2.15;1.08;;;6.30;99.90;;;;;;4948634;28;20047;-85
2021/12/06 07:17:26;;;;;;;3.00;1.58;;;6.20;99.90;;;;;;4950070;28;20509;-85
2021/12/06 07:19:51;;;;;;;6.38;1.48;;;6.20;99.90;;;;;;4947368;28;20051;-84
2021/12/06 07:22:17;;;;;;;6.22;1.63;;;6.30;99.90;;;;;;4947157;28;20162;-88
2021/12/06 07:24:43;;;;;;;2.50;1.50;;;6.30;99.90;;;;;;4957345;28;20044;-87
2021/12/06 07:27:09;;;;;;;7.93;1.70;;;6.30;99.90;;;;;;4950446;28;20043;-87
2021/12/06 07:29:36;;;;;;;6.32;2.10;;;6.30;99.90;;;;;;4939544;28;20048;-87
2021/12/06 07:32:05;;;;;;;3.53;1.75;;;6.70;99.90;;;;;;4957969;28;20913;-86
2021/12/06 07:34:31;;;;;;;2.20;1.48;;;6.40;99.90;;;;;;4950948;28;20059;-87
2021/12/06 07:36:57;;;;;;;5.07;1.30;;;6.40;99.90;;;;;;4955940;28;20044;-87
2021/12/06 07:39:23;;;;;;;3.67;1.83;;;6.50;99.90;;;;;;4946418;28;20047;-86
2021/12/06 07:41:50;;;;;;;3.25;1.50;;;6.50;99.90;;;;;;4959034;28;20514;-87
2021/12/06 07:44:16;;;;;;;5.10;1.77;;;6.50;99.90;;;;;;4961108;28;20055;-87
2021/12/06 07:46:42;;;;;;;3.22;1.90;;;6.50;99.90;;;;;;4956107;28;20670;-87
2021/12/06 07:49:07;;;;;;;3.90;1.63;;;6.40;99.90;;;;;;4946835;28;20067;-87
2021/12/06 07:51:33;;;;;;;4.93;1.73;;;6.40;99.90;;;;;;4941695;28;20048;-87
2021/12/06 07:54:01;;;;;;;4.20;1.77;;;6.40;99.90;;;;;;4954610;28;20056;-87
2021/12/06 07:56:28;;;;;;;3.35;1.65;;;6.40;99.90;;;;;;4940959;28;20047;-87
2021/12/06 07:58:54;;;;;;;3.88;1.88;;;6.40;99.90;;;;;;4944562;28;20398;-88
2021/12/06 08:01:19;;;;;;;2.78;1.25;;;6.30;99.90;;;;;;4953504;28;20079;-86
2021/12/06 08:03:45;;;;;;;2.83;1.88;;;6.20;99.90;;;;;;4951997;28;20047;-86
2021/12/06 08:06:11;;;;;;;4.35;2.17;;;6.50;99.90;;;;;;4957150;28;20134;-86
2021/12/06 08:08:39;;;;;;;8.60;4.20;;;6.20;99.90;;;;;;4956369;28;20050;-85
2021/12/06 08:11:13;;;;;;;16.23;4.07;;;6.50;99.90;;;;;;4945163;28;20135;-86
2021/12/06 08:13:44;;;;;;;6.70;2.63;;;6.20;99.90;;;;;;4958963;28;20051;-85
2021/12/06 08:16:17;;;;;;;4.40;2.50;;;6.40;99.90;;;;;;4959718;28;20044;-86
2021/12/06 08:18:46;;;;;;;6.05;1.92;;;6.40;99.90;;;;;;4937747;28;20744;-87
2021/12/06 08:21:14;;;;;;;7.43;2.60;;;6.40;99.90;;;;;;4959917;28;20111;-86
2021/12/06 08:23:40;;;;;;;3.78;2.10;;;6.70;99.90;;;;;;4941765;28;20094;-86
2021/12/06 08:26:10;;;;;;;3.58;2.53;;;6.50;99.90;;;;;;4956053;28;20051;-86
2021/12/06 08:28:36;;;;;;;3.92;2.13;;;6.50;99.90;;;;;;4960658;28;20170;-87
2021/12/06 08:31:05;;;;;;;4.38;2.05;;;6.50;99.90;;;;;;4960672;28;20041;-86
2021/12/06 08:33:31;;;;;;;3.38;2.05;;;6.50;99.90;;;;;;4961630;28;20078;-87
2021/12/06 08:35:57;;;;;;;3.85;1.88;;;6.50;99.90;;;;;;4960872;28;20174;-86
2021/12/06 08:38:26;;;;;;;6.30;3.00;;;6.50;99.90;;;;;;4958424;28;20048;-86
2021/12/06 08:40:54;;;;;;;2.60;2.08;;;6.40;99.90;;;;;;4959016;28;20651;-87
2021/12/06 08:43:20;;;;;;;8.73;2.88;;;6.40;99.90;;;;;;4955004;28;20178;-87
2021/12/06 08:45:55;;;;;;;6.90;2.38;;;6.40;99.90;;;;;;4958208;28;20046;-86
2021/12/06 08:48:24;;;;;;;5.28;2.08;;;6.40;99.90;;;;;;4940714;28;20488;-86
2021/12/06 08:50:52;;;;;;;4.28;1.85;;;6.40;99.90;;;;;;4958017;28;20051;-86
2021/12/06 08:53:18;;;;;;;4.57;1.95;;;6.50;99.90;;;;;;4939935;28;20093;-86
2021/12/06 08:55:43;;;;;;;2.20;1.70;;;6.50;99.90;;;;;;4958672;28;20598;-86
2021/12/06 08:58:09;;;;;;;5.32;2.25;;;6.60;99.90;;;;;;4953067;28;20040;-86
2021/12/06 09:00:36;;;;;;;3.70;2.20;;;6.60;99.90;;;;;;4958659;28;20047;-86
2021/12/06 09:03:02;;;;;;;3.83;1.58;;;6.70;99.90;;;;;;4954599;28;20062;-86
2021/12/06 09:05:41;;;;;;;2.33;1.85;;;6.70;99.90;;;;;;4945657;28;20070;-86
2021/12/06 09:08:07;;;;;;;3.72;1.75;;;6.70;99.90;;;;;;4943997;28;20079;-86
2021/12/06 09:10:34;;;;;;;6.28;1.75;;;6.70;99.90;;;;;;4942065;28;20040;-86
2021/12/06 09:13:00;;;;;;;4.50;2.13;;;6.70;99.90;;;;;;4939070;28;20044;-86
2021/12/06 09:15:26;;;;;;;2.97;1.80;;;6.70;99.90;;;;;;4940098;28;20069;-86
2021/12/06 09:17:55;;;;;;;3.03;1.58;;;6.80;99.90;;;;;;4956436;28;20209;-87
2021/12/06 09:20:24;;;;;;;3.40;1.40;;;6.90;99.90;;;;;;4940256;28;20110;-87
2021/12/06 09:22:51;;;;;;;7.70;1.50;;;6.90;99.90;;;;;;4937237;28;20558;-86
2021/12/06 09:25:18;;;;;;;4.30;1.38;;;7.00;99.90;;;;;;4950546;28;20130;-86
2021/12/06 09:27:45;;;;;;;2.30;1.50;;;7.00;99.90;;;;;;4953212;28;20040;-86
2021/12/06 09:30:15;;;;;;;6.75;2.17;;;7.00;99.90;;;;;;4943116;28;20059;-87
2021/12/06 09:32:42;;;;;;;2.25;1.60;;;7.00;99.90;;;;;;4959843;28;20127;-87
2021/12/06 09:35:13;;;;;;;5.93;1.60;;;7.00;99.90;;;;;;4954235;28;20413;-87
2021/12/06 09:37:40;;;;;;;2.97;1.55;;;6.90;99.90;;;;;;4940130;28;20043;-86
2021/12/06 09:40:07;;;;;;;3.78;1.48;;;6.90;99.90;;;;;;4959185;28;20070;-86
2021/12/06 09:42:36;;;;;;;3.80;1.15;;;7.00;99.90;;;;;;4956913;28;20079;-86
2021/12/06 09:45:07;;;;;;;3.45;1.75;;;7.00;99.90;;;;;;4943113;28;20040;-87
2021/12/06 09:47:33;;;;;;;3.47;1.33;;;7.20;99.90;;;;;;4953699;28;20044;-87
2021/12/06 09:49:59;;;;;;;6.97;1.75;;;7.30;99.90;;;;;;4939882;28;20131;-87
2021/12/06 09:52:25;;;;;;;4.68;1.83;;;7.40;99.90;;;;;;4947048;28;20058;-86
2021/12/06 09:54:52;;;;;;;3.28;1.42;;;7.40;99.90;;;;;;4942328;28;20143;-87
2021/12/06 09:57:18;;;;;;;2.25;1.55;;;7.50;99.90;;;;;;4967207;28;20823;-86
2021/12/06 09:59:44;;;;;;;3.80;2.03;;;7.50;99.90;;;;;;4941213;28;20143;-86
2021/12/06 10:02:14;;;;;;;2.58;1.20;;;7.90;99.90;;;;;;4939193;28;20051;-86
2021/12/06 10:04:45;;;;;;;3.58;1.60;;;7.60;99.90;;;;;;4957802;28;20078;-87
2021/12/06 10:07:13;;;;;;;3.67;1.40;;;7.70;99.90;;;;;;4953506;28;20044;-87
2021/12/06 10:09:41;;;;;;;4.38;1.70;;;7.60;99.90;;;;;;4962992;28;20078;-86
2021/12/06 10:12:08;;;;;;;3.47;1.17;;;7.60;99.90;;;;;;4962078;28;20054;-86
2021/12/06 10:14:42;;;;;;;3.45;1.67;;;7.60;99.90;;;;;;4968176;28;20485;-86
2021/12/06 10:17:08;;;;;;;4.45;1.58;;;7.60;99.90;;;;;;4960189;28;20052;-86
2021/12/06 10:19:33;;;;;;;2.47;1.35;;;7.70;99.90;;;;;;4962503;28;20036;-87
2021/12/06 10:21:59;;;;;;;2.13;1.15;;;7.60;99.90;;;;;;4946710;28;20055;-87
2021/12/06 10:24:28;;;;;;;4.63;1.67;;;7.60;99.90;;;;;;4962054;28;20063;-86
2021/12/06 10:27:08;;;;;;;4.28;1.70;;;7.50;99.90;;;;;;4939505;28;20067;-86
2021/12/06 10:29:41;;;;;;;1.52;1.13;;;7.50;99.90;;;;;;4962215;28;20075;-86
2021/12/06 10:32:19;;;;;;;2.45;1.08;;;7.50;99.90;;;;;;4943764;28;20036;-87
2021/12/06 10:34:51;;;;;;;5.05;1.30;;;7.50;99.90;;;;;;4951494;28;20143;-86
2021/12/06 10:37:30;;;;;;;2.25;1.20;;;7.50;99.90;;;;;;4977258;28;20054;-86
2021/12/06 10:39:56;;;;;;;3.28;1.65;;;7.60;99.90;;;;;;4958800;28;20055;-87
2021/12/06 10:42:41;;;;;;;3.33;1.77;;;7.60;99.90;;;;;;4976611;28;20054;-86
2021/12/06 10:45:14;;;;;;;7.45;2.67;;;7.80;99.90;;;;;;4971518;28;20043;-86
2021/12/06 10:47:40;;;;;;;6.30;1.45;;;7.70;99.90;;;;;;4951414;28;20035;-86
2021/12/06 10:50:18;;;;;;;2.88;1.63;;;7.60;99.90;;;;;;4949969;28;20043;-87
2021/12/06 10:52:52;;;;;;;3.90;1.60;;;7.50;99.90;;;;;;4939006;28;20064;-87
2021/12/06 10:55:20;;;;;;;10.52;1.83;;;7.40;99.90;;;;;;4944886;28;20216;-86
2021/12/06 10:57:54;;;;;;;4.38;1.30;;;7.30;99.90;;;;;;4947659;28;20078;-87
2021/12/06 11:00:38;;;;;;;3.00;1.48;;;7.50;99.90;;;;;;4945388;28;20605;-87
2021/12/06 11:03:26;;;;;;;4.00;1.23;;;7.40;99.90;;;;;;4944135;28;20035;-87
2021/12/06 11:05:58;;;;;;;3.63;1.70;;;7.40;99.90;;;;;;4948761;28;20059;-87
2021/12/06 11:08:25;;;;;;;4.50;1.60;;;7.60;99.90;;;;;;4964608;28;20098;-87
2021/12/06 11:10:54;;;;;;;2.17;1.40;;;7.80;99.90;;;;;;4971331;28;20922;-87
2021/12/06 11:13:26;;;;;;;4.65;1.40;;;8.00;99.90;;;;;;4952029;28;20472;-86
2021/12/06 11:15:58;;;;;;;2.50;1.50;;;8.00;99.90;;;;;;4967436;28;20911;-85
2021/12/06 11:18:32;;;;;;;6.53;1.80;;;8.10;99.90;;;;;;4948552;28;20040;-87
2021/12/06 11:21:35;;;;;;;5.70;2.45;;;8.20;99.90;;;;;;4949952;28;20043;-87
2021/12/06 11:24:06;;;;;;;4.38;1.70;;;8.30;99.90;;;;;;5033324;28;20045;-86
2021/12/06 11:26:35;;;;;;;4.93;1.45;;;8.30;99.90;;;;;;4958282;28;20048;-86
2021/12/06 11:29:16;;;;;;;5.30;1.35;;;8.30;99.90;;;;;;4956067;28;20054;-87
2021/12/06 11:32:07;;;;;;;5.82;2.28;;;8.40;99.90;;;;;;4949464;28;20043;-86
2021/12/06 11:34:36;;;;;;;1.85;1.15;;;8.40;99.90;;;;;;4945779;28;20039;-87
2021/12/06 11:37:04;;;;;;;2.13;1.38;;;8.40;99.90;;;;;;4940040;28;20042;-86
2021/12/06 11:39:30;;;;;;;4.80;1.52;;;8.40;99.90;;;;;;4947539;28;20044;-86
2021/12/06 11:41:58;;;;;;;4.50;1.67;;;8.20;99.90;;;;;;4943923;28;20050;-86
2021/12/06 11:44:33;;;;;;;2.65;1.55;;;8.10;99.90;;;;;;4957080;28;20044;-86
2021/12/06 11:47:07;;;;;;;5.07;1.75;;;8.00;99.90;;;;;;4944052;28;20120;-86
2021/12/06 11:49:36;;;;;;;2.88;1.60;;;8.00;99.90;;;;;;4956062;28;20048;-87
2021/12/06 11:52:04;;;;;;;2.92;1.63;;;8.10;99.90;;;;;;4959316;28;20074;-87
2021/12/06 11:54:59;;;;;;;2.65;1.85;;;8.20;99.90;;;;;;4944953;28;20076;-87
2021/12/06 11:57:28;;;;;;;3.25;2.25;;;8.40;99.90;;;;;;4966967;28;20512;-86
2021/12/06 12:00:12;;;;;;;4.68;1.50;;;8.30;99.90;;;;;;4956646;28;20043;-87
2021/12/06 12:02:52;;;;;;;2.70;2.35;;;8.20;99.90;;;;;;4944134;28;20052;-87
2021/12/06 12:05:24;;;;;;;4.88;1.63;;;8.20;99.90;;;;;;4950394;28;20490;-87
2021/12/06 12:07:58;;;;;;;;;;;8.20;99.90;;;;;;4940560;28;20050;-84
2021/12/06 12:10:44;;;;;;;3.35;1.65;;;8.30;99.90;;;;;;4941605;28;19927;-86
2021/12/06 12:13:36;;;;;;;3.70;1.98;;;8.40;99.90;;;;;;4956270;28;20035;-85
2021/12/06 12:16:05;;;;;;;4.45;1.42;;;8.40;99.90;;;;;;4961750;28;21043;-86
2021/12/06 12:18:32;;;;;;;1.45;1.17;;;8.50;99.90;;;;;;4946269;28;20093;-85
2021/12/06 12:20:58;;;;;;;3.30;1.75;;;8.50;99.90;;;;;;4943633;28;20036;-85
2021/12/06 12:23:27;;;;;;;2.85;1.85;;;8.50;99.90;;;;;;4938805;28;20054;-85
2021/12/06 12:28:51;;;;;;;6.28;2.28;;;8.50;99.90;;;;;;4939268;28;20109;-86
2021/12/06 12:31:19;;;;;;;3.38;1.90;;;8.50;99.90;;;;;;5028200;28;20535;-87
2021/12/06 12:33:48;;;;;;;3.53;1.55;;;8.60;99.90;;;;;;4949654;28;20044;-86
2021/12/06 12:36:18;;;;;;;5.13;1.42;;;8.60;99.90;;;;;;4945304;28;20039;-86
2021/12/06 12:38:46;;;;;;;3.15;1.52;;;8.70;99.90;;;;;;4963948;28;20043;-87
2021/12/06 12:41:15;;;;;;;3.45;1.00;;;8.70;99.90;;;;;;4953321;28;20631;-87
2021/12/06 12:43:51;;;;;;;2.85;1.20;;;8.70;99.90;;;;;;4964292;28;20143;-87
2021/12/06 12:46:21;;;;;;;2.53;1.38;;;8.70;99.90;;;;;;4957916;28;20056;-86
2021/12/06 12:48:55;;;;;;;3.38;1.48;;;8.70;99.90;;;;;;4960090;28;20616;-84
2021/12/06 12:51:46;;;;;;;2.03;1.17;;;8.80;99.90;;;;;;4962479;28;20134;-84
2021/12/06 12:54:24;;;;;;;2.63;1.13;;;8.80;99.90;;;;;;4939931;28;20047;-84
2021/12/06 12:57:06;;;;;;;3.65;1.50;;;8.90;99.90;;;;;;4961150;28;20586;-84
2021/12/06 13:00:01;;;;;;;2.15;1.30;;;8.80;99.90;;;;;;4953736;28;20200;-84
2021/12/06 13:02:31;;;;;;;2.67;1.40;;;8.80;99.90;;;;;;4946912;28;20143;-84
2021/12/06 13:05:00;;;;;;;3.00;1.70;;;8.70;99.90;;;;;;4952297;28;20162;-86
2021/12/06 13:07:33;;;;;;;2.78;1.30;;;8.70;99.90;;;;;;4940916;28;20115;-87
2021/12/06 13:10:29;;;;;;;6.90;1.70;;;8.70;99.90;;;;;;4944128;28;20048;-87
2021/12/06 13:12:58;;;;;;;3.00;1.27;;;8.70;99.90;;;;;;4940751;28;20301;-87
2021/12/06 13:16:01;;;;;;;2.78;1.73;;;8.80;99.90;;;;;;4953838;28;20521;-87
2021/12/06 13:19:05;;;;;;;3.08;1.48;;;8.90;99.90;;;;;;4937280;28;20224;-87
2021/12/06 13:21:56;;;;;;;5.80;1.45;;;8.80;99.90;;;;;;4942674;28;20051;-87
2021/12/06 13:24:22;;;;;;;3.28;1.63;;;8.80;99.90;;;;;;4935989;28;20114;-86